createdAt,value
2022-08-17T00:01:31.359Z,100222.34
2022-08-17T00:04:12.329Z,100220.91
2022-08-17T00:06:43.347Z,100203.19
2022-08-17T00:09:12.677Z,100220.78
2022-08-17T00:12:03.894Z,100215.53
2022-08-17T00:14:31.831Z,100214.19
2022-08-17T00:16:58.853Z,100225.81
2022-08-17T00:19:26.481Z,100214.31
2022-08-17T00:22:32.472Z,100211.38
2022-08-17T00:24:42.904Z,100191.63
2022-08-17T00:27:09.378Z,100214.69
2022-08-17T00:29:36.022Z,100187.84
2022-08-17T00:33:15.123Z,100215.75
2022-08-17T00:34:49.898Z,100214.56
2022-08-17T00:37:16.691Z,100213.09
2022-08-17T00:39:44.087Z,100177.19
2022-08-17T00:42:18.457Z,100203.41
2022-08-17T00:44:46.051Z,100202.22
2022-08-17T00:47:12.627Z,100190.88
2022-08-17T00:49:39.212Z,100189.63
2022-08-17T00:52:15.464Z,100193.34
2022-08-17T00:54:43.804Z,100212.22
2022-08-17T00:57:30.078Z,100212.47
2022-08-17T01:00:02.151Z,100205.72
2022-08-17T01:02:36.676Z,100204.50
2022-08-17T01:05:11.677Z,100202.13
2022-08-17T01:07:38.681Z,100164.78
2022-08-17T01:10:07.069Z,100199.22
2022-08-17T01:12:35.440Z,100194.00
2022-08-17T01:15:01.904Z,100194.91
2022-08-17T01:17:28.623Z,100191.84
2022-08-17T01:19:55.111Z,100168.72
2022-08-17T01:22:25.892Z,100189.09
2022-08-17T01:24:59.093Z,100186.47
2022-08-17T01:27:26.688Z,100175.53
2022-08-17T01:29:58.900Z,100180.66
2022-08-17T01:32:26.911Z,100191.13
2022-08-17T01:34:54.468Z,100194.94
2022-08-17T01:37:28.645Z,100188.34
2022-08-17T01:40:00.626Z,100198.91
2022-08-17T01:42:52.153Z,100200.28
2022-08-17T01:45:23.041Z,100198.16
2022-08-17T01:47:51.016Z,100194.09
2022-08-17T01:50:23.726Z,100194.22
2022-08-17T01:52:55.667Z,100168.13
2022-08-17T01:55:27.525Z,100197.25
2022-08-17T01:57:54.060Z,100193.03
2022-08-17T02:00:20.876Z,100162.38
2022-08-17T02:02:47.618Z,100180.13
2022-08-17T02:05:14.347Z,100149.13
2022-08-17T02:07:55.989Z,100193.16
2022-08-17T02:10:33.935Z,100204.78
2022-08-17T02:13:03.601Z,100204.78
2022-08-17T02:15:30.742Z,100204.19
2022-08-17T02:17:57.286Z,100178.97
2022-08-17T02:20:41.809Z,100204.34
2022-08-17T02:23:10.871Z,100208.09
2022-08-17T02:25:39.326Z,100195.59
2022-08-17T02:28:05.899Z,100195.59
2022-08-17T02:31:00.992Z,100196.22
2022-08-17T02:33:20.222Z,100182.78
2022-08-17T02:35:47.615Z,100170.22
2022-08-17T02:38:14.211Z,100167.53
2022-08-17T02:40:40.966Z,100196.13
2022-08-17T02:43:08.802Z,100182.13
2022-08-17T02:45:36.130Z,100169.50
2022-08-17T02:48:03.378Z,100180.59
2022-08-17T02:50:30.117Z,100133.84
2022-08-17T02:53:01.828Z,100160.53
2022-08-17T02:55:34.200Z,100158.00
2022-08-17T02:58:01.582Z,100187.56
2022-08-17T03:00:34.441Z,100184.84
2022-08-17T03:03:01.887Z,100167.34
2022-08-17T03:05:30.496Z,100172.34
2022-08-17T03:07:57.615Z,100174.91
2022-08-17T03:10:24.745Z,100181.22
2022-08-17T03:12:52.593Z,100175.19
2022-08-17T03:15:28.687Z,100176.38
2022-08-17T03:17:56.661Z,100170.81
2022-08-17T03:20:24.791Z,100169.81
2022-08-17T03:22:53.944Z,100170.44
2022-08-17T03:25:27.619Z,100175.66
2022-08-17T03:27:56.638Z,100180.34
2022-08-17T03:30:25.887Z,100176.81
2022-08-17T03:32:54.882Z,100176.81
2022-08-17T03:35:24.409Z,100178.53
2022-08-17T03:37:59.970Z,100176.34
2022-08-17T03:40:34.401Z,100162.78
2022-08-17T03:43:15.593Z,100168.31
2022-08-17T03:46:01.765Z,100168.50
2022-08-17T03:48:46.660Z,100172.91
2022-08-17T03:51:42.241Z,100166.88
2022-08-17T03:54:28.884Z,100177.50
2022-08-17T03:57:07.390Z,100182.69
2022-08-17T03:59:35.465Z,100183.19
2022-08-17T04:02:11.017Z,100178.72
2022-08-17T04:04:38.121Z,100166.22
2022-08-17T04:07:04.986Z,100173.03
2022-08-17T04:09:31.724Z,100174.59
2022-08-17T04:12:02.261Z,100173.13
2022-08-17T04:14:36.668Z,100156.72
2022-08-17T04:17:13.360Z,100179.03
2022-08-17T04:19:40.023Z,100172.00
2022-08-17T04:22:06.635Z,100172.28
2022-08-17T04:24:34.391Z,100184.94
2022-08-17T04:27:01.845Z,100195.56
2022-08-17T04:29:28.326Z,100202.66
2022-08-17T04:32:14.863Z,100205.28
2022-08-17T04:34:41.720Z,100210.47
2022-08-17T04:37:08.659Z,100211.13
2022-08-17T04:39:35.347Z,100170.41
2022-08-17T04:42:09.208Z,100204.38
2022-08-17T04:44:37.859Z,100209.75
2022-08-17T04:47:05.100Z,100188.38
2022-08-17T04:49:32.534Z,100202.44
2022-08-17T04:52:04.336Z,100218.16
2022-08-17T04:54:31.489Z,100201.28
2022-08-17T04:56:58.021Z,100221.28
2022-08-17T04:59:24.545Z,100220.72
2022-08-17T05:01:51.796Z,100220.50
2022-08-17T05:04:35.166Z,100219.16
2022-08-17T05:07:04.547Z,100217.59
2022-08-17T05:09:31.577Z,100229.81
2022-08-17T05:12:01.598Z,100227.72
2022-08-17T05:14:33.082Z,100224.09
2022-08-17T05:17:01.260Z,100234.06
2022-08-17T05:19:28.805Z,100228.88
2022-08-17T05:21:55.338Z,100237.00
2022-08-17T05:24:42.478Z,100209.53
2022-08-17T05:27:08.435Z,100224.25
2022-08-17T05:29:35.445Z,100235.66
2022-08-17T05:32:38.089Z,100209.91
2022-08-17T05:35:00.406Z,100227.78
2022-08-17T05:37:27.294Z,100195.59
2022-08-17T05:39:54.083Z,100216.84
2022-08-17T05:42:20.727Z,100231.03
2022-08-17T05:44:47.216Z,100206.00
2022-08-17T05:47:13.783Z,100197.66
2022-08-17T05:49:40.294Z,100224.94
2022-08-17T05:52:13.403Z,100208.00
2022-08-17T05:54:57.312Z,100223.34
2022-08-17T05:57:26.917Z,100221.50
2022-08-17T06:00:06.608Z,100221.06
2022-08-17T06:02:51.136Z,100196.84
2022-08-17T06:05:27.005Z,100221.69
2022-08-17T06:08:12.511Z,100221.78
2022-08-17T06:10:38.977Z,100218.81
2022-08-17T06:13:11.927Z,100203.44
2022-08-17T06:16:03.137Z,100214.31
2022-08-17T06:18:45.040Z,100220.38
2022-08-17T06:21:17.921Z,100203.78
2022-08-17T06:24:04.521Z,100205.56
2022-08-17T06:26:42.459Z,100221.38
2022-08-17T06:29:22.346Z,100215.28
2022-08-17T06:31:48.915Z,100187.84
2022-08-17T06:34:15.554Z,100206.31
2022-08-17T06:37:01.636Z,100204.50
2022-08-17T06:39:48.803Z,100204.13
2022-08-17T06:42:54.882Z,100207.03
2022-08-17T06:45:11.287Z,100164.88
2022-08-17T06:47:47.475Z,100207.00
2022-08-17T06:50:27.364Z,100215.13
2022-08-17T06:53:03.988Z,100184.47
2022-08-17T06:55:59.936Z,100210.88
2022-08-17T06:58:31.221Z,100212.25
2022-08-17T07:01:10.963Z,100164.06
2022-08-17T07:03:49.791Z,100204.13
2022-08-17T07:06:22.934Z,100212.69
2022-08-17T07:08:52.652Z,100217.16
2022-08-17T07:11:43.891Z,100211.28
2022-08-17T07:14:20.073Z,100205.50
2022-08-17T07:16:50.390Z,100210.50
2022-08-17T07:19:20.228Z,100201.00
2022-08-17T07:22:07.773Z,100212.09
2022-08-17T07:24:45.109Z,100189.88
2022-08-17T07:27:22.656Z,100206.28
2022-08-17T07:29:53.713Z,100210.31
2022-08-17T07:32:25.543Z,100201.63
2022-08-17T07:35:07.536Z,100207.53
2022-08-17T07:37:39.256Z,100194.59
2022-08-17T07:40:28.540Z,100173.06
2022-08-17T07:43:05.378Z,100218.81
2022-08-17T07:45:50.831Z,100205.88
2022-08-17T07:48:21.461Z,100212.97
2022-08-17T07:50:50.456Z,100207.31
2022-08-17T07:53:19.746Z,100219.22
2022-08-17T07:55:46.322Z,100223.75
2022-08-17T07:58:22.819Z,100196.34
2022-08-17T08:01:04.938Z,100218.03
2022-08-17T08:03:34.008Z,100214.22
2022-08-17T08:06:03.123Z,100210.03
2022-08-17T08:08:42.763Z,100208.88
2022-08-17T08:11:12.557Z,100220.41
2022-08-17T08:13:45.686Z,100217.34
2022-08-17T08:16:19.972Z,100208.31
2022-08-17T08:18:55.405Z,100227.34
2022-08-17T08:21:51.214Z,100227.53
2022-08-17T08:24:48.953Z,100219.72
2022-08-17T08:27:33.653Z,100231.53
2022-08-17T08:30:07.204Z,100226.81
2022-08-17T08:32:36.893Z,100228.75
2022-08-17T08:35:26.743Z,100224.06
2022-08-17T08:38:13.494Z,100228.69
2022-08-17T08:40:49.753Z,100220.34
2022-08-17T08:43:37.664Z,100217.97
2022-08-17T08:46:45.682Z,100214.81
2022-08-17T08:50:01.436Z,100194.44
2022-08-17T08:52:34.003Z,100211.00
2022-08-17T08:55:39.302Z,100212.03
2022-08-17T08:58:31.991Z,100202.63
2022-08-17T09:00:58.655Z,100208.38
2022-08-17T09:03:53.128Z,100205.22
2022-08-17T09:06:39.072Z,100201.59
2022-08-17T09:09:40.754Z,100184.44
2022-08-17T09:12:30.027Z,100200.97
2022-08-17T09:15:15.802Z,100199.41
2022-08-17T09:17:55.730Z,100189.84
2022-08-17T09:20:50.466Z,100197.44
2022-08-17T09:23:38.040Z,100202.75
2022-08-17T09:26:10.443Z,100206.00
2022-08-17T09:28:39.502Z,100187.47
2022-08-17T09:31:13.058Z,100204.09
2022-08-17T09:33:48.198Z,100202.28
2022-08-17T09:36:24.136Z,100175.97
2022-08-17T09:39:01.016Z,100192.16
2022-08-17T09:41:51.959Z,100198.31
2022-08-17T09:44:23.400Z,100199.84
2022-08-17T09:46:56.028Z,100189.53
2022-08-17T09:49:29.401Z,100165.66
2022-08-17T09:52:01.336Z,100178.97
2022-08-17T09:54:39.504Z,100191.84
2022-08-17T09:57:29.129Z,100204.88
2022-08-17T09:59:57.322Z,100202.69
2022-08-17T10:03:00.536Z,100195.53
2022-08-17T10:05:47.135Z,100205.91
2022-08-17T10:08:37.083Z,100213.22
2022-08-17T10:11:05.691Z,100208.13
2022-08-17T10:13:35.468Z,100206.88
2022-08-17T10:16:08.071Z,100204.59
2022-08-17T10:18:44.261Z,100182.19
2022-08-17T10:21:31.860Z,100160.16
2022-08-17T10:25:21.408Z,100185.75
2022-08-17T10:27:42.996Z,100141.66
2022-08-17T10:30:10.912Z,100200.63
2022-08-17T10:32:56.235Z,100208.53
2022-08-17T10:35:30.398Z,100189.06
2022-08-17T10:38:33.985Z,100191.41
2022-08-17T10:41:07.255Z,100200.22
2022-08-17T10:44:38.182Z,100198.56
2022-08-17T10:46:52.214Z,100173.81
2022-08-17T10:49:18.752Z,100207.47
2022-08-17T10:52:06.632Z,100212.56
2022-08-17T10:54:36.178Z,100216.56
2022-08-17T10:57:03.506Z,100205.91
2022-08-17T10:59:36.206Z,100216.59
2022-08-17T11:02:12.227Z,100210.53
2022-08-17T11:05:07.669Z,100214.69
2022-08-17T11:08:05.287Z,100222.16
2022-08-17T11:10:53.601Z,100232.03
2022-08-17T11:13:48.413Z,100248.50
2022-08-17T11:16:24.473Z,100243.69
2022-08-17T11:19:16.553Z,100244.94
2022-08-17T11:22:06.643Z,100255.31
2022-08-17T11:24:43.407Z,100249.13
2022-08-17T11:27:22.374Z,100254.00
2022-08-17T11:29:52.622Z,100261.44
2022-08-17T11:32:32.962Z,100252.31
2022-08-17T11:35:30.288Z,100249.63
2022-08-17T11:38:20.481Z,100220.06
2022-08-17T11:40:59.473Z,100239.97
2022-08-17T11:43:44.248Z,100250.22
2022-08-17T11:46:51.733Z,100257.25
2022-08-17T11:49:48.881Z,100245.28
2022-08-17T11:52:47.049Z,100256.50
2022-08-17T11:55:35.689Z,100260.63
2022-08-17T11:58:26.560Z,100232.34
2022-08-17T12:01:03.013Z,100240.56
2022-08-17T12:03:32.926Z,100254.41
2022-08-17T12:06:30.771Z,100254.16
2022-08-17T12:09:14.498Z,100262.16
2022-08-17T12:11:55.488Z,100257.97
2022-08-17T12:15:05.822Z,100242.72
2022-08-17T12:17:41.389Z,100239.72
2022-08-17T12:20:18.609Z,100264.88
2022-08-17T12:23:04.946Z,100260.16
2022-08-17T12:25:37.810Z,100261.34
2022-08-17T12:28:07.572Z,100240.38
2022-08-17T12:30:35.668Z,100246.91
2022-08-17T12:33:02.526Z,100253.81
2022-08-17T12:35:38.736Z,100236.72
2022-08-17T12:38:32.182Z,100227.94
2022-08-17T12:40:58.353Z,100244.44
2022-08-17T12:43:27.682Z,100244.00
2022-08-17T12:46:01.049Z,100250.19
2022-08-17T12:48:39.988Z,100237.53
2022-08-17T12:51:26.018Z,100227.94
2022-08-17T12:53:54.931Z,100242.25
2022-08-17T12:56:21.562Z,100245.97
2022-08-17T12:58:53.392Z,100231.31
2022-08-17T13:01:20.118Z,100240.81
2022-08-17T13:03:51.355Z,100239.09
2022-08-17T13:06:31.463Z,100234.56
2022-08-17T13:09:11.623Z,100216.16
2022-08-17T13:11:52.265Z,100231.09
2022-08-17T13:14:19.365Z,100216.38
2022-08-17T13:16:55.970Z,100204.66
2022-08-17T13:19:39.897Z,100221.75
2022-08-17T13:22:10.941Z,100213.53
2022-08-17T13:24:38.039Z,100209.03
2022-08-17T13:27:08.272Z,100201.34
2022-08-17T13:29:39.056Z,100211.16
2022-08-17T13:32:08.555Z,100205.88
2022-08-17T13:35:11.803Z,100194.66
2022-08-17T13:37:35.251Z,100190.00
2022-08-17T13:40:08.088Z,100199.22
2022-08-17T13:42:50.435Z,100202.50
2022-08-17T13:45:35.344Z,100201.00
2022-08-17T13:48:12.360Z,100207.66
2022-08-17T13:50:45.749Z,100198.47
2022-08-17T13:53:29.851Z,100192.94
2022-08-17T13:56:34.962Z,100144.75
2022-08-17T13:59:52.766Z,100201.16
2022-08-17T14:02:13.378Z,100171.13
2022-08-17T14:04:41.584Z,100170.16
2022-08-17T14:07:12.417Z,100208.63
2022-08-17T14:09:53.196Z,100191.34
2022-08-17T14:12:25.497Z,100171.03
2022-08-17T14:14:53.268Z,100201.88
2022-08-17T14:17:20.087Z,100200.50
2022-08-17T14:19:46.572Z,100170.81
2022-08-17T14:22:34.615Z,100211.19
2022-08-17T14:25:01.954Z,100208.47
2022-08-17T14:27:31.812Z,100193.41
2022-08-17T14:29:58.341Z,100185.84
2022-08-17T14:32:31.237Z,100206.78
2022-08-17T14:34:59.220Z,100220.66
2022-08-17T14:37:27.918Z,100207.69
2022-08-17T14:39:59.819Z,100179.03
2022-08-17T14:42:28.931Z,100216.63
2022-08-17T14:44:56.548Z,100213.22
2022-08-17T14:47:23.050Z,100187.84
2022-08-17T14:49:49.566Z,100187.13
2022-08-17T14:52:20.749Z,100206.03
2022-08-17T14:54:51.830Z,100190.72
2022-08-17T14:57:33.327Z,100165.38
2022-08-17T15:00:01.628Z,100203.91
2022-08-17T15:02:29.786Z,100199.66
2022-08-17T15:05:02.530Z,100198.88
2022-08-17T15:07:30.493Z,100186.53
2022-08-17T15:09:58.847Z,100184.91
2022-08-17T15:12:32.424Z,100189.00
2022-08-17T15:15:00.964Z,100157.38
2022-08-17T15:17:44.718Z,100172.00
2022-08-17T15:20:17.947Z,100197.00
2022-08-17T15:22:46.282Z,100186.81
2022-08-17T15:25:13.513Z,100188.88
2022-08-17T15:27:40.429Z,100188.22
2022-08-17T15:30:08.147Z,100175.47
2022-08-17T15:32:38.123Z,100180.88
2022-08-17T15:35:06.819Z,100138.06
2022-08-17T15:37:33.579Z,100186.53
2022-08-17T15:40:01.215Z,100169.25
2022-08-17T15:42:29.012Z,100167.34
2022-08-17T15:44:55.546Z,100187.50
2022-08-17T15:47:22.690Z,100181.94
2022-08-17T15:49:50.654Z,100156.38
2022-08-17T15:52:21.483Z,100177.00
2022-08-17T15:54:57.065Z,100185.13
2022-08-17T15:57:26.601Z,100175.94
2022-08-17T15:59:58.610Z,100172.47
2022-08-17T16:03:43.436Z,100149.03
2022-08-17T16:05:24.998Z,100170.72
2022-08-17T16:07:52.483Z,100158.59
2022-08-17T16:10:19.628Z,100160.13
2022-08-17T16:12:47.800Z,100136.00
2022-08-17T16:15:14.627Z,100177.38
2022-08-17T16:17:41.517Z,100165.53
2022-08-17T16:20:20.512Z,100159.69
2022-08-17T16:22:48.704Z,100174.56
2022-08-17T16:25:21.272Z,100149.41
2022-08-17T16:27:54.189Z,100172.09
2022-08-17T16:30:23.605Z,100186.31
2022-08-17T16:32:53.996Z,100183.09
2022-08-17T16:35:22.623Z,100189.00
2022-08-17T16:37:49.501Z,100179.00
2022-08-17T16:40:17.106Z,100186.22
2022-08-17T16:42:46.774Z,100172.66
2022-08-17T16:45:16.689Z,100180.94
2022-08-17T16:47:43.657Z,100185.38
2022-08-17T16:50:12.717Z,100187.53
2022-08-17T16:52:40.025Z,100199.19
2022-08-17T16:55:13.315Z,100172.31
2022-08-17T16:57:50.368Z,100194.63
2022-08-17T17:00:19.485Z,100208.56
2022-08-17T17:02:47.744Z,100207.00
2022-08-17T17:05:25.145Z,100219.44
2022-08-17T17:08:07.649Z,100204.88
2022-08-17T17:10:45.509Z,100229.16
2022-08-17T17:13:27.152Z,100207.78
2022-08-17T17:15:57.562Z,100230.69
2022-08-17T17:18:32.550Z,100227.78
2022-08-17T17:21:00.472Z,100211.53
2022-08-17T17:23:48.516Z,100237.13
2022-08-17T17:26:24.975Z,100228.75
2022-08-17T17:29:18.317Z,100245.97
2022-08-17T17:32:22.179Z,100235.41
2022-08-17T17:34:54.089Z,100252.53
2022-08-17T17:37:26.089Z,100260.00
2022-08-17T17:39:56.536Z,100262.16
2022-08-17T17:42:24.834Z,100265.72
2022-08-17T17:45:16.728Z,100265.72
2022-08-17T17:47:44.411Z,100224.41
2022-08-17T17:50:11.139Z,100264.78
2022-08-17T17:52:45.296Z,100266.38
2022-08-17T17:55:19.163Z,100241.34
2022-08-17T17:58:01.207Z,100276.97
2022-08-17T18:00:58.787Z,100286.22
2022-08-17T18:03:34.194Z,100287.16
2022-08-17T18:06:06.805Z,100292.69
2022-08-17T18:09:06.282Z,100296.66
2022-08-17T18:12:03.461Z,100313.81
2022-08-17T18:14:55.581Z,100320.91
2022-08-17T18:17:22.179Z,100333.13
2022-08-17T18:19:48.833Z,100326.91
2022-08-17T18:22:19.401Z,100310.09
2022-08-17T18:24:55.696Z,100312.63
2022-08-17T18:27:51.815Z,100321.88
2022-08-17T18:30:18.447Z,100320.41
2022-08-17T18:32:46.481Z,100318.69
2022-08-17T18:35:15.855Z,100317.06
2022-08-17T18:37:57.566Z,100315.16
2022-08-17T18:40:28.584Z,100336.34
2022-08-17T18:42:59.565Z,100341.38
2022-08-17T18:45:38.203Z,100336.09
2022-08-17T18:48:07.163Z,100339.63
2022-08-17T18:50:41.381Z,100326.47
2022-08-17T18:53:30.411Z,100328.00
2022-08-17T18:56:25.391Z,100329.47
2022-08-17T18:59:11.135Z,100335.47
2022-08-17T19:02:10.054Z,100327.28
2022-08-17T19:04:59.327Z,100337.97
2022-08-17T19:07:28.470Z,100341.63
2022-08-17T19:10:07.116Z,100337.97
2022-08-17T19:12:55.053Z,100339.13
2022-08-17T19:15:38.622Z,100351.63
2022-08-17T19:18:24.764Z,100350.88
2022-08-17T19:20:58.603Z,100316.09
2022-08-17T19:23:26.868Z,100361.22
2022-08-17T19:25:55.601Z,100359.97
2022-08-17T19:28:48.610Z,100371.19
2022-08-17T19:31:28.055Z,100376.69
2022-08-17T19:33:55.783Z,100357.25
2022-08-17T19:36:22.373Z,100378.84
2022-08-17T19:38:58.722Z,100384.84
2022-08-17T19:41:44.258Z,100350.69
2022-08-17T19:44:41.724Z,100369.50
2022-08-17T19:47:30.735Z,100369.94
2022-08-17T19:50:12.440Z,100364.09
2022-08-17T19:53:07.544Z,100339.63
2022-08-17T19:55:57.809Z,100371.13
2022-08-17T19:58:51.527Z,100369.44
2022-08-17T20:01:34.851Z,100369.19
2022-08-17T20:04:04.626Z,100372.78
2022-08-17T20:06:33.480Z,100380.84
2022-08-17T20:09:21.697Z,100380.28
2022-08-17T20:11:57.286Z,100334.88
2022-08-17T20:14:41.262Z,100365.84
2022-08-17T20:17:20.558Z,100353.84
2022-08-17T20:19:53.450Z,100382.63
2022-08-17T20:22:29.245Z,100379.75
2022-08-17T20:25:30.045Z,100383.44
2022-08-17T20:28:06.157Z,100384.72
2022-08-17T20:30:37.843Z,100379.91
2022-08-17T20:33:06.692Z,100371.72
2022-08-17T20:35:39.235Z,100383.53
2022-08-17T20:38:10.509Z,100394.00
2022-08-17T20:40:40.144Z,100390.22
2022-08-17T20:43:34.806Z,100398.41
2022-08-17T20:46:35.322Z,100397.25
2022-08-17T20:49:11.059Z,100397.63
2022-08-17T20:52:01.193Z,100405.06
2022-08-17T20:54:48.982Z,100412.88
2022-08-17T20:57:31.175Z,100408.22
2022-08-17T21:00:15.093Z,100413.50
2022-08-17T21:03:28.584Z,100411.25
2022-08-17T21:06:17.899Z,100410.38
2022-08-17T21:08:58.432Z,100420.69
2022-08-17T21:11:57.091Z,100418.25
2022-08-17T21:14:29.666Z,100416.56
2022-08-17T21:17:34.162Z,100414.97
2022-08-17T21:20:12.941Z,100414.69
2022-08-17T21:22:49.040Z,100418.31
2022-08-17T21:25:35.955Z,100412.31
2022-08-17T21:28:35.587Z,100401.88
2022-08-17T21:31:08.548Z,100415.44
2022-08-17T21:33:39.892Z,100381.56
2022-08-17T21:36:12.590Z,100413.84
2022-08-17T21:38:48.737Z,100411.44
2022-08-17T21:41:24.161Z,100421.19
2022-08-17T21:43:52.142Z,100409.06
2022-08-17T21:46:31.754Z,100403.34
2022-08-17T21:49:05.108Z,100417.75
2022-08-17T21:51:44.730Z,100417.44
2022-08-17T21:54:31.342Z,100432.53
2022-08-17T21:57:00.189Z,100396.78
2022-08-17T21:59:38.334Z,100431.34
2022-08-17T22:02:08.118Z,100438.75
2022-08-17T22:04:41.917Z,100443.88
2022-08-17T22:07:11.360Z,100429.94
2022-08-17T22:09:45.194Z,100448.25
2022-08-17T22:12:16.417Z,100450.63
2022-08-17T22:14:57.047Z,100451.09
2022-08-17T22:17:26.568Z,100461.81
2022-08-17T22:20:02.432Z,100465.06
2022-08-17T22:22:56.658Z,100461.75
2022-08-17T22:25:24.451Z,100450.84
2022-08-17T22:27:54.392Z,100458.06
2022-08-17T22:31:00.695Z,100456.19
2022-08-17T22:33:36.980Z,100457.09
2022-08-17T22:36:12.468Z,100470.19
2022-08-17T22:38:41.111Z,100430.75
2022-08-17T22:41:34.317Z,100462.50
2022-08-17T22:44:27.670Z,100464.56
2022-08-17T22:47:00.239Z,100465.97
2022-08-17T22:50:00.478Z,100460.72
2022-08-17T22:52:33.193Z,100471.41
2022-08-17T22:55:22.082Z,100451.31
2022-08-17T22:58:07.114Z,100446.56
2022-08-17T23:00:41.135Z,100480.63
2022-08-17T23:03:18.419Z,100482.28
2022-08-17T23:06:03.543Z,100476.25
2022-08-17T23:08:30.797Z,100473.06
2022-08-17T23:10:59.706Z,100477.75
2022-08-17T23:13:27.339Z,100468.16
2022-08-17T23:15:53.912Z,100472.53
2022-08-17T23:18:20.515Z,100478.28
2022-08-17T23:20:47.093Z,100472.97
2022-08-17T23:23:15.102Z,100476.44
2022-08-17T23:25:44.485Z,100474.19
2022-08-17T23:28:11.332Z,100459.56
2022-08-17T23:30:46.000Z,100461.69
2022-08-17T23:33:21.540Z,100456.88
2022-08-17T23:35:48.186Z,100437.91
2022-08-17T23:38:14.655Z,100463.75
2022-08-17T23:40:41.218Z,100459.97
2022-08-17T23:43:24.630Z,100455.81
2022-08-17T23:45:57.898Z,100467.50
2022-08-17T23:48:35.938Z,100459.97
2022-08-17T23:51:18.944Z,100460.84
2022-08-17T23:53:48.457Z,100466.09
2022-08-17T23:56:15.632Z,100475.66
2022-08-17T23:58:43.620Z,100484.59
